Time;durP1;ratioP1;P1;durP2;ratioP2;P2;SDS_P1;SDS_P2;PMS_P1;PMS_P2;Temp;Humidity;BMP_temperature;BMP_pressure;BME280_temperature;BME280_humidity;BME280_pressure;Samples;Min_cycle;Max_cycle;Signal;HPM_P1;HPM_P2
2022/08/06 00:00:31;;;;;;;3.20;2.90;;;25.30;59.60;;;;;;5018798;28;20201;-76
2022/08/06 00:02:57;;;;;;;3.17;2.87;;;25.30;59.60;;;;;;5022701;28;20190;-76
2022/08/06 00:05:23;;;;;;;3.77;3.00;;;25.20;59.50;;;;;;5016832;28;20240;-76
2022/08/06 00:07:48;;;;;;;3.50;2.97;;;25.20;59.40;;;;;;5021282;28;20234;-76
2022/08/06 00:10:18;;;;;;;3.40;3.10;;;25.20;59.30;;;;;;5019513;28;20269;-76
2022/08/06 00:12:44;;;;;;;3.00;2.80;;;25.20;59.30;;;;;;5021927;28;20193;-75
2022/08/06 00:15:10;;;;;;;3.13;2.83;;;25.20;59.30;;;;;;5019248;28;20523;-76
2022/08/06 00:17:38;;;;;;;3.30;3.00;;;25.20;59.40;;;;;;5015682;28;20541;-76
2022/08/06 00:20:05;;;;;;;3.70;3.40;;;25.10;59.40;;;;;;5010334;28;20474;-76
2022/08/06 00:22:31;;;;;;;4.00;3.30;;;25.10;59.50;;;;;;5021165;28;20435;-76
2022/08/06 00:24:57;;;;;;;3.50;3.20;;;25.20;59.60;;;;;;5020302;28;20816;-76
2022/08/06 00:27:23;;;;;;;6.70;3.33;;;25.20;59.50;;;;;;5020849;28;20712;-75
2022/08/06 00:29:49;;;;;;;3.03;2.80;;;25.10;59.40;;;;;;5021761;28;21001;-76
2022/08/06 00:32:15;;;;;;;3.60;2.80;;;25.00;59.50;;;;;;5019177;28;20612;-76
2022/08/06 00:34:41;;;;;;;3.80;3.33;;;25.00;59.50;;;;;;5015625;28;20439;-76
2022/08/06 00:37:07;;;;;;;3.67;2.97;;;25.00;59.50;;;;;;5020386;28;20470;-75
2022/08/06 00:39:32;;;;;;;4.07;3.67;;;25.10;59.60;;;;;;5018603;28;20188;-76
2022/08/06 00:41:58;;;;;;;3.73;3.20;;;25.00;59.50;;;;;;5019221;28;20264;-76
2022/08/06 00:44:24;;;;;;;6.33;4.20;;;25.00;59.50;;;;;;5019821;28;20203;-76
2022/08/06 00:46:50;;;;;;;5.07;3.97;;;25.00;59.60;;;;;;5019179;28;20205;-76
2022/08/06 00:49:16;;;;;;;5.27;3.23;;;25.00;59.50;;;;;;5018250;28;20176;-76
2022/08/06 00:51:42;;;;;;;3.40;3.10;;;25.00;59.50;;;;;;5018239;28;20662;-76
2022/08/06 00:54:08;;;;;;;3.70;3.40;;;24.90;59.50;;;;;;5022318;28;20275;-76
2022/08/06 00:56:33;;;;;;;5.30;3.30;;;24.90;59.50;;;;;;5021350;28;20900;-76
2022/08/06 00:58:59;;;;;;;5.17;3.03;;;24.90;59.60;;;;;;5019942;28;20342;-76
2022/08/06 01:01:24;;;;;;;3.53;3.00;;;24.90;59.60;;;;;;5020236;28;20685;-76
2022/08/06 01:03:50;;;;;;;3.33;2.80;;;24.90;59.60;;;;;;5028955;28;20191;-76
2022/08/06 01:06:16;;;;;;;2.97;2.77;;;24.90;59.70;;;;;;5030834;28;20208;-76
2022/08/06 01:08:41;;;;;;;5.10;3.20;;;24.90;59.70;;;;;;5022090;28;20199;-76
2022/08/06 01:11:07;;;;;;;3.97;3.20;;;24.80;59.50;;;;;;5020283;28;20172;-76
2022/08/06 01:13:33;;;;;;;3.77;3.20;;;24.80;59.50;;;;;;5017040;28;20189;-76
2022/08/06 01:16:09;;;;;;;4.40;3.10;;;24.70;59.50;;;;;;5017053;28;20207;-76
2022/08/06 01:18:55;;;;;;;3.10;2.80;;;24.70;59.70;;;;;;5020260;28;20267;-76
2022/08/06 01:21:50;;;;;;;4.27;2.67;;;24.60;59.80;;;;;;5025129;28;20439;-76
2022/08/06 01:24:44;;;;;;;3.77;3.07;;;24.60;59.80;;;;;;5017721;28;20459;-77
2022/08/06 01:27:40;;;;;;;2.93;2.70;;;24.70;59.80;;;;;;5034179;28;20482;-77
2022/08/06 01:30:14;;;;;;;5.10;3.10;;;24.60;59.50;;;;;;5015756;28;22330;-77
2022/08/06 01:32:52;;;;;;;5.90;3.33;;;24.60;59.50;;;;;;5024739;28;20444;-76
2022/08/06 01:35:26;;;;;;;3.07;2.70;;;24.60;59.60;;;;;;5018659;28;20430;-77
2022/08/06 01:38:03;;;;;;;3.50;3.20;;;24.60;59.20;;;;;;5020752;28;20455;-77
2022/08/06 01:40:35;;;;;;;3.17;2.63;;;24.50;59.40;;;;;;5021690;28;20434;-76
2022/08/06 01:43:04;;;;;;;4.03;2.70;;;24.40;59.20;;;;;;5018771;28;20458;-76
2022/08/06 01:45:33;;;;;;;4.03;2.80;;;24.40;59.40;;;;;;5017874;28;20463;-76
2022/08/06 01:48:03;;;;;;;3.03;2.83;;;24.40;59.50;;;;;;5021136;28;20447;-76
2022/08/06 01:50:40;;;;;;;2.97;2.67;;;24.30;59.50;;;;;;5015682;28;20427;-76
2022/08/06 01:53:11;;;;;;;5.13;3.17;;;24.20;59.60;;;;;;5017956;28;20556;-77
2022/08/06 01:55:41;;;;;;;3.43;3.13;;;24.30;59.80;;;;;;5018578;28;20462;-77
2022/08/06 01:58:09;;;;;;;3.40;2.70;;;24.30;59.80;;;;;;5015818;28;20435;-78
2022/08/06 02:00:40;;;;;;;3.10;2.80;;;24.30;59.80;;;;;;5021265;28;20447;-77
2022/08/06 02:03:22;;;;;;;3.50;3.10;;;24.20;59.80;;;;;;5019122;28;20543;-76
2022/08/06 02:05:51;;;;;;;2.77;2.57;;;24.20;59.80;;;;;;5012994;28;20467;-77
2022/08/06 02:08:18;;;;;;;6.30;3.13;;;24.20;59.80;;;;;;5011867;28;20486;-77
2022/08/06 02:10:46;;;;;;;4.00;3.20;;;24.20;59.90;;;;;;5018078;28;20530;-76
2022/08/06 02:13:14;;;;;;;3.30;3.00;;;24.10;60.00;;;;;;5019762;28;20427;-76
2022/08/06 02:15:43;;;;;;;3.00;2.80;;;24.00;60.20;;;;;;5018365;28;20500;-76
2022/08/06 02:18:10;;;;;;;3.33;2.93;;;24.10;60.40;;;;;;5014700;28;20443;-76
2022/08/06 02:20:44;;;;;;;4.80;3.40;;;24.00;60.50;;;;;;5016884;28;20452;-76
2022/08/06 02:23:16;;;;;;;7.07;2.80;;;24.00;60.60;;;;;;5016330;28;20513;-77
2022/08/06 02:25:43;;;;;;;5.70;2.97;;;24.00;60.80;;;;;;5018640;28;20463;-77
2022/08/06 02:28:11;;;;;;;4.10;3.40;;;24.00;61.00;;;;;;5018758;28;20442;-76
2022/08/06 02:30:42;;;;;;;3.67;3.10;;;23.90;61.10;;;;;;5019449;28;20896;-76
2022/08/06 02:33:08;;;;;;;5.00;3.70;;;23.90;61.40;;;;;;5016110;28;20530;-76
2022/08/06 02:35:49;;;;;;;3.80;2.70;;;23.90;61.40;;;;;;5017113;28;20430;-77
2022/08/06 02:38:24;;;;;;;3.13;2.87;;;23.80;61.70;;;;;;5019546;28;20445;-77
2022/08/06 02:40:56;;;;;;;3.30;3.00;;;23.80;61.80;;;;;;5021076;28;20439;-77
2022/08/06 02:43:34;;;;;;;5.10;3.03;;;23.80;62.20;;;;;;5021491;28;20434;-77
2022/08/06 02:46:07;;;;;;;3.07;2.87;;;23.70;62.50;;;;;;5019684;28;20481;-77
2022/08/06 02:48:45;;;;;;;3.80;2.80;;;23.70;62.70;;;;;;5022542;28;20534;-77
2022/08/06 02:51:16;;;;;;;4.50;3.50;;;23.60;62.80;;;;;;5021120;28;20438;-77
2022/08/06 02:54:00;;;;;;;3.50;3.20;;;23.50;63.20;;;;;;5034023;28;20518;-76
2022/08/06 02:56:26;;;;;;;4.27;3.30;;;23.50;63.60;;;;;;5020208;28;20462;-76
2022/08/06 02:58:55;;;;;;;6.20;3.10;;;23.50;63.90;;;;;;5022202;28;20454;-77
2022/08/06 03:01:32;;;;;;;4.90;3.50;;;23.40;64.00;;;;;;5021424;28;20953;-77
2022/08/06 03:04:00;;;;;;;3.70;3.40;;;23.40;64.10;;;;;;5019460;28;20546;-77
2022/08/06 03:06:33;;;;;;;3.20;2.90;;;23.40;64.20;;;;;;5021809;28;20451;-77
2022/08/06 03:09:00;;;;;;;5.33;3.40;;;23.30;64.40;;;;;;5017350;28;20423;-77
2022/08/06 03:11:30;;;;;;;3.90;2.87;;;23.30;64.60;;;;;;5020667;28;20435;-77
2022/08/06 03:13:56;;;;;;;3.47;3.17;;;23.30;64.90;;;;;;5020139;28;20432;-76
2022/08/06 03:16:23;;;;;;;3.83;3.13;;;23.30;65.00;;;;;;5017800;28;20463;-76
2022/08/06 03:18:51;;;;;;;4.30;3.90;;;23.30;65.30;;;;;;5018180;28;20826;-76
2022/08/06 03:21:19;;;;;;;3.67;2.90;;;23.20;65.50;;;;;;5022534;28;20465;-76
2022/08/06 03:23:45;;;;;;;9.07;4.37;;;23.10;65.90;;;;;;5019574;28;20426;-76
2022/08/06 03:26:11;;;;;;;3.40;3.10;;;23.10;66.20;;;;;;5019179;28;20458;-76
2022/08/06 03:28:38;;;;;;;5.17;3.80;;;23.10;66.50;;;;;;5019587;28;20522;-76
2022/08/06 03:31:04;;;;;;;4.00;3.20;;;23.10;66.90;;;;;;5024830;28;20415;-76
2022/08/06 03:33:30;;;;;;;3.97;3.57;;;23.00;67.10;;;;;;5019012;28;20436;-76
2022/08/06 03:35:59;;;;;;;4.70;3.40;;;23.00;67.40;;;;;;5019974;28;20527;-76
2022/08/06 03:38:26;;;;;;;7.63;3.90;;;23.00;68.00;;;;;;5021484;28;20446;-76
2022/08/06 03:40:54;;;;;;;4.63;3.77;;;22.90;67.90;;;;;;5019560;28;20931;-76
2022/08/06 03:43:19;;;;;;;4.57;3.63;;;22.80;68.70;;;;;;5020424;28;20443;-76
2022/08/06 03:45:52;;;;;;;4.60;3.60;;;22.80;69.20;;;;;;5022057;28;20522;-77
2022/08/06 03:48:24;;;;;;;3.87;3.50;;;22.80;69.20;;;;;;5019062;28;20291;-76
2022/08/06 03:50:51;;;;;;;3.87;3.43;;;22.70;69.70;;;;;;5018718;28;20438;-76
2022/08/06 03:53:20;;;;;;;6.40;3.47;;;22.70;69.80;;;;;;5019799;28;20870;-76
2022/08/06 03:55:47;;;;;;;5.00;3.80;;;22.70;70.00;;;;;;5017118;28;21137;-75
2022/08/06 03:58:15;;;;;;;5.50;3.50;;;22.60;69.90;;;;;;5024087;28;21149;-76
2022/08/06 04:00:46;;;;;;;3.30;3.00;;;22.60;70.00;;;;;;5020433;28;20843;-76
2022/08/06 04:03:13;;;;;;;4.83;3.33;;;22.60;70.00;;;;;;5021305;28;20435;-76
2022/08/06 04:05:41;;;;;;;4.80;4.00;;;22.60;69.80;;;;;;5022728;28;20462;-76
2022/08/06 04:08:09;;;;;;;4.00;3.43;;;22.60;69.70;;;;;;5019191;28;20435;-76
2022/08/06 04:10:44;;;;;;;5.30;3.53;;;22.50;69.80;;;;;;5021906;28;20470;-76
2022/08/06 04:13:15;;;;;;;7.53;3.30;;;22.50;69.80;;;;;;5015494;28;20445;-76
2022/08/06 04:15:42;;;;;;;5.43;4.13;;;22.30;70.20;;;;;;5017612;28;20444;-76
2022/08/06 04:18:10;;;;;;;3.93;3.43;;;22.30;70.20;;;;;;5020056;28;20455;-76
2022/08/06 04:20:39;;;;;;;3.60;3.30;;;22.30;70.30;;;;;;5018349;28;20521;-78
2022/08/06 04:23:05;;;;;;;3.93;3.50;;;22.20;70.50;;;;;;5020275;28;20533;-78
2022/08/06 04:25:37;;;;;;;3.60;3.30;;;22.20;70.70;;;;;;5021435;28;20535;-76
2022/08/06 04:28:05;;;;;;;4.60;3.33;;;22.20;70.70;;;;;;5017385;28;20569;-76
2022/08/06 04:30:32;;;;;;;4.33;3.90;;;22.10;70.60;;;;;;5020755;28;20435;-77
2022/08/06 04:32:59;;;;;;;8.53;4.17;;;22.10;70.90;;;;;;5016015;28;20514;-76
2022/08/06 04:35:25;;;;;;;4.83;3.60;;;22.00;71.40;;;;;;5019807;28;20437;-76
2022/08/06 04:37:51;;;;;;;5.10;3.73;;;22.00;71.30;;;;;;5019068;28;20478;-76
2022/08/06 04:40:19;;;;;;;4.40;3.60;;;21.90;71.20;;;;;;5015327;28;20491;-76
2022/08/06 04:42:44;;;;;;;3.40;3.10;;;21.90;71.60;;;;;;5019427;28;20455;-76
2022/08/06 04:45:11;;;;;;;3.53;3.23;;;22.00;71.40;;;;;;5023013;28;20521;-76
2022/08/06 04:47:37;;;;;;;4.73;3.60;;;22.00;70.90;;;;;;5014377;28;20325;-76
2022/08/06 04:50:03;;;;;;;7.30;4.17;;;21.90;71.00;;;;;;5021531;28;20479;-76
2022/08/06 04:52:29;;;;;;;4.33;3.63;;;21.80;71.10;;;;;;5018526;28;20496;-76
2022/08/06 04:54:56;;;;;;;4.07;3.67;;;21.90;71.00;;;;;;5020583;28;20441;-76
2022/08/06 04:57:21;;;;;;;4.20;3.83;;;21.80;70.70;;;;;;5016409;28;20455;-76
2022/08/06 04:59:47;;;;;;;4.47;3.50;;;21.80;70.80;;;;;;5021919;28;20512;-77
2022/08/06 05:02:13;;;;;;;5.40;3.63;;;21.80;71.00;;;;;;5019197;28;20201;-77
2022/08/06 05:04:41;;;;;;;6.23;3.47;;;21.80;70.90;;;;;;5019282;28;20223;-77
2022/08/06 05:07:15;;;;;;;4.20;3.90;;;21.80;70.70;;;;;;5020056;28;20196;-77
2022/08/06 05:09:41;;;;;;;4.10;3.70;;;21.80;70.90;;;;;;5034831;28;20440;-77
2022/08/06 05:12:21;;;;;;;6.17;3.90;;;21.80;70.90;;;;;;5021865;28;20446;-77
2022/08/06 05:14:54;;;;;;;7.10;3.60;;;21.70;70.90;;;;;;5020811;28;20533;-77
2022/08/06 05:17:22;;;;;;;4.07;3.43;;;21.70;70.80;;;;;;5021417;28;20593;-77
2022/08/06 05:20:04;;;;;;;3.90;3.50;;;21.70;70.80;;;;;;5018859;28;20443;-77
2022/08/06 05:22:32;;;;;;;4.87;3.47;;;21.60;70.80;;;;;;5022992;28;21096;-77
2022/08/06 05:24:58;;;;;;;3.70;3.40;;;21.60;70.90;;;;;;5018797;28;21006;-77
2022/08/06 05:27:24;;;;;;;5.33;3.80;;;21.60;70.90;;;;;;5018663;28;20529;-77
2022/08/06 05:29:50;;;;;;;3.87;3.47;;;21.60;71.20;;;;;;5017371;28;20454;-77
2022/08/06 05:32:16;;;;;;;3.63;3.33;;;21.60;71.00;;;;;;5014448;28;20565;-77
2022/08/06 05:34:46;;;;;;;4.33;3.40;;;21.50;70.80;;;;;;5025406;28;20295;-76
2022/08/06 05:37:11;;;;;;;3.70;3.40;;;21.50;71.20;;;;;;5013245;28;20465;-77
2022/08/06 05:39:37;;;;;;;4.63;3.63;;;21.50;71.10;;;;;;5019389;28;20925;-77
2022/08/06 05:42:03;;;;;;;3.80;3.50;;;21.40;71.10;;;;;;5022075;28;20311;-77
2022/08/06 05:44:28;;;;;;;3.67;3.37;;;21.50;71.30;;;;;;5022131;28;20278;-77
2022/08/06 05:47:03;;;;;;;4.10;3.80;;;21.40;71.40;;;;;;5020849;28;20200;-77
2022/08/06 05:49:37;;;;;;;6.00;3.30;;;21.50;71.50;;;;;;5013553;28;20195;-77
2022/08/06 05:52:15;;;;;;;5.40;3.50;;;21.50;71.30;;;;;;5020214;28;20427;-77
2022/08/06 05:55:10;;;;;;;6.20;3.00;;;21.50;71.20;;;;;;5017812;28;20437;-77
2022/08/06 05:57:56;;;;;;;3.67;3.37;;;21.50;71.20;;;;;;5022399;28;20494;-77
2022/08/06 06:00:24;;;;;;;5.70;3.27;;;21.50;71.20;;;;;;5015735;28;20445;-77
2022/08/06 06:02:53;;;;;;;4.90;3.67;;;21.40;71.30;;;;;;5017016;28;20455;-77
2022/08/06 06:05:20;;;;;;;5.17;3.47;;;21.40;71.40;;;;;;5019353;28;20459;-77
2022/08/06 06:07:47;;;;;;;4.90;3.93;;;21.50;71.50;;;;;;5017646;28;20462;-76
2022/08/06 06:10:14;;;;;;;6.17;3.37;;;21.50;71.50;;;;;;5018190;28;21073;-76
2022/08/06 06:12:40;;;;;;;3.50;3.10;;;21.50;71.50;;;;;;5020602;28;21004;-75
2022/08/06 06:15:09;;;;;;;4.90;3.40;;;21.50;71.30;;;;;;5016182;28;20897;-76
2022/08/06 06:17:52;;;;;;;4.03;3.53;;;21.50;71.10;;;;;;5014726;28;20462;-76
2022/08/06 06:20:42;;;;;;;4.27;3.87;;;21.50;71.00;;;;;;5016359;28;20909;-76
2022/08/06 06:23:13;;;;;;;5.43;3.50;;;21.50;70.90;;;;;;5021554;28;20868;-76
2022/08/06 06:25:55;;;;;;;3.50;3.20;;;21.50;71.00;;;;;;5009625;28;20474;-75
2022/08/06 06:28:55;;;;;;;3.57;3.03;;;21.60;70.90;;;;;;5020607;28;20423;-76
2022/08/06 06:31:41;;;;;;;3.73;3.03;;;21.60;70.60;;;;;;5017380;28;20431;-76
2022/08/06 06:34:17;;;;;;;3.50;3.20;;;21.60;70.70;;;;;;5013942;28;20438;-76
2022/08/06 06:37:09;;;;;;;3.40;3.10;;;21.70;70.50;;;;;;5017602;28;21161;-74
2022/08/06 06:39:53;;;;;;;4.20;3.23;;;21.70;70.40;;;;;;5019587;28;20423;-76
2022/08/06 06:42:31;;;;;;;5.30;3.60;;;21.70;70.50;;;;;;5018788;28;20438;-74
2022/08/06 06:45:18;;;;;;;3.40;3.10;;;21.70;70.90;;;;;;5032607;28;21158;-74
2022/08/06 06:48:01;;;;;;;4.30;3.40;;;21.80;71.10;;;;;;5019284;28;20442;-75
2022/08/06 06:50:32;;;;;;;3.20;2.90;;;21.80;70.80;;;;;;5014666;28;20529;-75
2022/08/06 06:52:58;;;;;;;5.50;3.20;;;21.80;70.50;;;;;;5019154;28;20454;-75
2022/08/06 06:55:32;;;;;;;4.30;3.33;;;21.80;70.40;;;;;;5015621;28;20419;-75
2022/08/06 06:58:12;;;;;;;8.33;3.57;;;21.80;70.50;;;;;;5018212;28;20444;-75
2022/08/06 07:00:38;;;;;;;3.60;3.00;;;21.90;70.70;;;;;;5018242;28;20439;-75
2022/08/06 07:03:05;;;;;;;3.80;3.40;;;21.90;70.60;;;;;;5020210;28;20521;-75
2022/08/06 07:05:34;;;;;;;3.63;3.30;;;22.00;70.50;;;;;;5017723;28;20458;-75
2022/08/06 07:08:01;;;;;;;6.40;3.60;;;21.90;70.70;;;;;;5017687;28;21062;-74
2022/08/06 07:10:27;;;;;;;4.30;3.63;;;22.00;70.60;;;;;;5018274;28;20936;-75
2022/08/06 07:12:54;;;;;;;4.00;3.60;;;22.00;70.30;;;;;;5016396;28;20439;-75
2022/08/06 07:15:23;;;;;;;5.07;3.70;;;22.00;71.10;;;;;;5013934;28;20446;-76
2022/08/06 07:17:50;;;;;;;3.40;3.10;;;22.00;70.40;;;;;;5017591;28;20855;-76
2022/08/06 07:20:28;;;;;;;4.50;3.70;;;22.10;70.60;;;;;;5017747;28;20441;-76
2022/08/06 07:22:55;;;;;;;3.90;3.47;;;22.10;70.50;;;;;;5015313;28;20431;-75
2022/08/06 07:25:22;;;;;;;4.03;3.67;;;22.20;70.70;;;;;;5016890;28;20457;-76
2022/08/06 07:27:50;;;;;;;5.40;3.43;;;22.20;70.80;;;;;;5018983;28;20474;-75
2022/08/06 07:30:18;;;;;;;3.80;3.50;;;22.20;70.90;;;;;;5021713;28;21276;-76
2022/08/06 07:32:45;;;;;;;4.60;3.10;;;22.30;70.70;;;;;;5021983;28;20439;-76
2022/08/06 07:35:12;;;;;;;4.27;3.70;;;22.30;70.90;;;;;;5021802;28;20435;-75
2022/08/06 07:37:42;;;;;;;3.70;3.33;;;22.40;70.70;;;;;;5022654;28;20532;-75
2022/08/06 07:40:14;;;;;;;4.47;4.07;;;22.50;70.50;;;;;;5020732;28;20418;-75
2022/08/06 07:42:41;;;;;;;3.60;3.30;;;22.50;70.10;;;;;;5018119;28;20478;-75
2022/08/06 07:45:09;;;;;;;3.97;3.17;;;22.60;69.70;;;;;;5020775;28;21324;-76
2022/08/06 07:47:37;;;;;;;4.53;3.20;;;22.60;69.30;;;;;;5019501;28;20453;-76
2022/08/06 07:50:04;;;;;;;5.00;3.57;;;22.70;68.90;;;;;;5025281;28;20472;-76
2022/08/06 07:52:30;;;;;;;3.67;3.30;;;22.80;68.30;;;;;;5027879;28;20421;-76
2022/08/06 07:54:56;;;;;;;5.27;3.67;;;22.80;67.20;;;;;;5019030;28;20526;-76
2022/08/06 07:57:23;;;;;;;5.20;3.10;;;22.80;66.80;;;;;;5024561;28;20573;-75
2022/08/06 07:59:49;;;;;;;5.50;3.07;;;22.80;66.70;;;;;;5026043;28;20677;-77
2022/08/06 08:02:16;;;;;;;4.23;3.10;;;22.80;65.90;;;;;;5022673;28;20431;-76
2022/08/06 08:07:28;;;;;;;3.53;3.23;;;22.90;65.30;;;;;;5023700;28;20449;-76
2022/08/06 08:09:55;;;;;;;3.47;3.17;;;22.90;64.80;;;;;;5025607;28;20509;-76
2022/08/06 08:12:22;;;;;;;3.80;2.93;;;23.00;64.60;;;;;;5024512;28;20422;-76
2022/08/06 08:14:50;;;;;;;5.87;3.77;;;23.00;64.10;;;;;;5018581;28;20481;-77
2022/08/06 08:17:16;;;;;;;3.23;2.90;;;23.10;63.50;;;;;;5019848;28;20447;-76
2022/08/06 08:19:42;;;;;;;3.63;3.33;;;23.10;63.30;;;;;;5021631;28;20964;-76
2022/08/06 08:22:19;;;;;;;4.90;3.83;;;23.10;62.80;;;;;;5016371;28;20447;-76
2022/08/06 08:24:47;;;;;;;3.50;3.20;;;23.20;62.50;;;;;;5018113;28;20208;-76
2022/08/06 08:27:14;;;;;;;2.93;2.73;;;23.20;61.70;;;;;;5018704;28;20526;-77
2022/08/06 08:29:41;;;;;;;5.20;2.63;;;23.20;60.10;;;;;;5023102;28;20479;-76
2022/08/06 08:32:08;;;;;;;5.20;3.20;;;23.20;59.70;;;;;;5020185;28;20454;-76
2022/08/06 08:34:35;;;;;;;7.27;3.10;;;23.30;59.80;;;;;;5022792;28;20445;-75
2022/08/06 08:37:01;;;;;;;3.90;2.80;;;23.40;58.90;;;;;;5018884;28;20450;-76
2022/08/06 08:39:27;;;;;;;4.40;3.00;;;23.40;58.30;;;;;;5019080;28;20503;-75
2022/08/06 08:42:08;;;;;;;3.10;2.70;;;23.50;57.80;;;;;;5018899;28;20567;-75
2022/08/06 08:44:34;;;;;;;7.60;5.30;;;23.50;57.40;;;;;;5015559;28;20212;-76
2022/08/06 08:47:02;;;;;;;7.27;2.80;;;23.60;57.10;;;;;;5020679;28;20815;-76
2022/08/06 08:49:37;;;;;;;3.00;2.80;;;23.60;56.60;;;;;;5023617;28;20800;-76
2022/08/06 08:52:07;;;;;;;3.17;2.57;;;23.70;56.50;;;;;;5017009;28;20430;-76
2022/08/06 08:54:36;;;;;;;3.20;2.80;;;23.70;56.10;;;;;;5019664;28;20447;-76
2022/08/06 08:57:05;;;;;;;3.20;2.90;;;23.70;54.90;;;;;;5022725;28;20475;-76
2022/08/06 08:59:32;;;;;;;2.73;2.53;;;23.80;55.10;;;;;;5026155;28;20455;-76
2022/08/06 09:01:58;;;;;;;5.70;2.83;;;23.80;54.50;;;;;;5019129;28;20524;-75
2022/08/06 09:04:25;;;;;;;3.27;2.90;;;23.90;54.40;;;;;;5025021;28;20459;-75
2022/08/06 09:06:51;;;;;;;3.07;2.87;;;23.90;54.60;;;;;;5021457;28;20454;-75
2022/08/06 09:09:18;;;;;;;2.73;2.53;;;23.90;54.30;;;;;;5019603;28;20431;-76
2022/08/06 09:11:44;;;;;;;2.40;2.20;;;24.00;54.10;;;;;;5013588;28;20453;-76
2022/08/06 09:14:10;;;;;;;3.30;2.50;;;24.00;54.20;;;;;;5020836;28;20566;-76
2022/08/06 09:16:36;;;;;;;3.20;2.90;;;24.00;54.00;;;;;;5017412;28;20550;-76
2022/08/06 09:19:04;;;;;;;3.90;2.70;;;24.00;54.20;;;;;;5019439;28;20168;-76
2022/08/06 09:21:31;;;;;;;3.03;2.50;;;24.10;53.80;;;;;;5034707;28;20972;-75
2022/08/06 09:23:58;;;;;;;3.67;2.47;;;24.20;54.00;;;;;;5019974;28;20443;-75
2022/08/06 09:26:24;;;;;;;4.10;2.87;;;24.20;54.20;;;;;;5013344;28;20568;-75
2022/08/06 09:28:50;;;;;;;4.27;2.77;;;24.20;54.10;;;;;;5018913;28;20435;-76
2022/08/06 09:31:19;;;;;;;7.00;2.83;;;24.30;54.20;;;;;;5020806;28;20423;-75
2022/08/06 09:33:54;;;;;;;3.70;2.70;;;24.30;53.50;;;;;;5019334;28;20184;-76
2022/08/06 09:36:20;;;;;;;3.20;2.90;;;24.30;53.70;;;;;;5020378;28;20458;-75
2022/08/06 09:38:48;;;;;;;3.30;3.00;;;24.30;54.10;;;;;;5030101;28;20473;-76
2022/08/06 09:41:14;;;;;;;7.33;2.67;;;24.40;54.20;;;;;;5038786;28;20467;-76
2022/08/06 09:43:41;;;;;;;2.70;2.50;;;24.40;54.10;;;;;;5042995;28;20464;-77
2022/08/06 09:46:07;;;;;;;3.50;2.60;;;24.50;53.80;;;;;;5040486;28;21297;-75
2022/08/06 09:48:34;;;;;;;3.10;2.80;;;24.50;53.70;;;;;;5027607;28;20441;-76
2022/08/06 09:51:00;;;;;;;2.90;2.67;;;24.60;53.30;;;;;;5021365;28;20436;-74
2022/08/06 09:53:26;;;;;;;2.73;2.53;;;24.70;53.50;;;;;;5021557;28;21060;-75
2022/08/06 09:55:55;;;;;;;4.13;2.40;;;24.70;53.70;;;;;;5017501;28;20439;-75
2022/08/06 09:58:35;;;;;;;2.80;2.60;;;24.90;53.80;;;;;;5018545;28;20497;-75
2022/08/06 10:01:41;;;;;;;6.70;2.80;;;25.00;53.70;;;;;;5023268;28;20423;-75
2022/08/06 10:04:12;;;;;;;6.30;3.20;;;25.00;53.20;;;;;;5016093;28;20463;-74
2022/08/06 10:06:59;;;;;;;3.20;2.90;;;25.10;52.90;;;;;;5025599;28;20687;-74
2022/08/06 10:09:26;;;;;;;2.93;2.60;;;25.20;52.60;;;;;;5018358;28;20423;-74
2022/08/06 10:11:52;;;;;;;2.77;2.53;;;25.20;52.70;;;;;;5023360;28;20424;-75
2022/08/06 10:14:32;;;;;;;3.60;2.67;;;25.20;52.70;;;;;;5018967;28;20443;-76
2022/08/06 10:17:15;;;;;;;5.53;2.50;;;25.30;51.90;;;;;;5022202;28;20464;-75
2022/08/06 10:19:42;;;;;;;2.87;2.67;;;25.30;51.90;;;;;;5023853;28;20789;-75
2022/08/06 10:22:11;;;;;;;2.90;2.70;;;25.40;52.10;;;;;;5023313;28;20454;-76
2022/08/06 10:24:41;;;;;;;3.63;2.97;;;25.50;51.80;;;;;;5022646;28;20458;-74
2022/08/06 10:27:10;;;;;;;3.10;2.77;;;25.50;51.20;;;;;;5024226;28;20718;-74
2022/08/06 10:29:44;;;;;;;4.10;2.90;;;25.50;51.10;;;;;;5023199;28;20445;-74
2022/08/06 10:32:20;;;;;;;3.47;2.77;;;25.50;51.30;;;;;;5024467;28;20484;-75
2022/08/06 10:34:48;;;;;;;4.67;2.50;;;25.50;51.20;;;;;;5028051;28;20451;-74
2022/08/06 10:37:19;;;;;;;5.10;2.50;;;25.60;50.90;;;;;;5028957;28;20954;-74
2022/08/06 10:39:49;;;;;;;4.27;2.67;;;25.60;50.80;;;;;;5027908;28;20457;-74
2022/08/06 10:42:15;;;;;;;3.17;2.60;;;25.70;50.90;;;;;;5023226;28;20440;-74
2022/08/06 10:44:44;;;;;;;2.97;2.47;;;25.80;50.90;;;;;;5023203;28;20558;-74
2022/08/06 10:47:11;;;;;;;4.93;2.43;;;25.80;50.50;;;;;;5029321;28;20516;-74
2022/08/06 10:49:37;;;;;;;3.20;2.53;;;25.80;50.40;;;;;;5030326;28;20446;-75
2022/08/06 10:52:03;;;;;;;5.43;2.83;;;25.80;50.20;;;;;;5025830;28;20412;-75
2022/08/06 10:54:30;;;;;;;3.33;2.50;;;25.80;50.20;;;;;;5024814;28;20877;-74
2022/08/06 10:56:57;;;;;;;2.60;2.40;;;25.90;49.80;;;;;;5024286;28;20452;-75
2022/08/06 10:59:23;;;;;;;3.67;2.60;;;25.90;49.10;;;;;;5022692;28;20479;-75
2022/08/06 11:02:29;;;;;;;7.73;3.00;;;25.90;49.60;;;;;;5029934;28;20755;-74
2022/08/06 11:05:07;;;;;;;2.60;2.40;;;25.90;49.60;;;;;;5031081;28;20208;-75
2022/08/06 11:08:04;;;;;;;4.63;2.83;;;26.00;49.60;;;;;;5031630;28;20441;-75
2022/08/06 11:11:12;;;;;;;3.63;2.70;;;26.10;49.70;;;;;;5025230;28;20465;-75
2022/08/06 11:13:57;;;;;;;2.77;2.37;;;26.10;49.10;;;;;;5028877;28;20430;-75
2022/08/06 11:16:24;;;;;;;2.50;2.30;;;26.00;47.80;;;;;;5031666;28;20847;-75
2022/08/06 11:19:10;;;;;;;11.33;2.50;;;25.90;47.90;;;;;;5035776;28;20491;-75
2022/08/06 11:21:47;;;;;;;4.20;2.60;;;26.10;48.50;;;;;;5033077;28;20423;-74
2022/08/06 11:24:14;;;;;;;3.10;2.63;;;26.10;48.90;;;;;;5024629;28;20516;-74
2022/08/06 11:26:43;;;;;;;2.60;2.40;;;26.20;48.40;;;;;;5021479;28;21115;-75
2022/08/06 11:29:15;;;;;;;3.50;2.60;;;26.30;48.50;;;;;;5022200;28;20459;-75
2022/08/06 11:31:47;;;;;;;4.30;3.20;;;26.30;48.10;;;;;;5017176;28;20450;-75
2022/08/06 11:34:15;;;;;;;3.13;2.43;;;26.40;47.80;;;;;;5029408;28;20458;-75
2022/08/06 11:37:01;;;;;;;2.90;2.60;;;26.40;47.90;;;;;;5034217;28;20595;-74
2022/08/06 11:39:30;;;;;;;3.20;2.40;;;26.50;48.40;;;;;;5022314;28;20800;-74
2022/08/06 11:41:59;;;;;;;3.00;2.60;;;26.60;48.50;;;;;;5021342;28;20442;-75
2022/08/06 11:44:32;;;;;;;2.73;2.53;;;26.70;48.20;;;;;;5031684;28;20547;-75
2022/08/06 11:47:10;;;;;;;4.00;2.43;;;26.80;48.10;;;;;;5036845;28;21036;-77
2022/08/06 11:49:38;;;;;;;2.70;2.50;;;26.90;47.00;;;;;;5020043;28;20439;-73
2022/08/06 11:52:04;;;;;;;3.10;2.40;;;27.00;46.40;;;;;;5020474;28;20430;-75
2022/08/06 11:54:33;;;;;;;2.63;2.40;;;27.00;47.00;;;;;;5015355;28;20444;-74
2022/08/06 11:57:02;;;;;;;3.13;2.40;;;27.10;46.40;;;;;;5017602;28;20782;-75
2022/08/06 11:59:44;;;;;;;3.13;2.83;;;27.20;46.90;;;;;;5018165;28;20498;-75
2022/08/06 12:02:11;;;;;;;3.50;3.13;;;27.40;47.50;;;;;;5021735;28;20419;-74
2022/08/06 12:04:44;;;;;;;6.30;2.50;;;27.60;47.00;;;;;;5018128;28;20913;-75
2022/08/06 12:07:25;;;;;;;4.27;2.30;;;27.80;46.90;;;;;;5021422;28;20467;-74
2022/08/06 12:10:07;;;;;;;3.80;2.30;;;28.20;46.90;;;;;;5012054;28;20438;-74
2022/08/06 12:12:42;;;;;;;3.00;2.80;;;28.70;46.20;;;;;;5019651;28;20950;-73
2022/08/06 12:15:20;;;;;;;4.30;2.60;;;29.00;44.70;;;;;;5015564;28;21007;-75
2022/08/06 12:17:54;;;;;;;5.70;3.07;;;29.50;44.30;;;;;;5021105;28;20533;-75
2022/08/06 12:20:31;;;;;;;2.60;2.40;;;30.10;44.40;;;;;;5017532;28;20879;-76
2022/08/06 12:22:58;;;;;;;3.60;2.53;;;30.40;42.80;;;;;;5018658;28;20470;-75
2022/08/06 12:25:31;;;;;;;5.37;2.50;;;30.80;42.80;;;;;;5017258;28;20951;-75
2022/08/06 12:28:01;;;;;;;3.23;2.73;;;31.10;41.60;;;;;;5025601;28;20446;-74
2022/08/06 12:30:27;;;;;;;3.03;2.50;;;31.40;42.20;;;;;;5029374;28;20458;-76
2022/08/06 12:33:00;;;;;;;2.70;2.50;;;31.60;41.80;;;;;;5026791;28;20501;-74
2022/08/06 12:35:26;;;;;;;4.93;2.53;;;31.60;40.30;;;;;;5025638;28;20803;-74
2022/08/06 12:37:52;;;;;;;8.03;2.50;;;31.60;39.20;;;;;;5026627;28;20454;-73
2022/08/06 12:40:28;;;;;;;5.50;2.50;;;31.60;39.80;;;;;;5026223;28;20810;-73
2022/08/06 12:43:03;;;;;;;3.07;2.77;;;31.70;40.00;;;;;;5026807;28;20522;-74
2022/08/06 12:45:31;;;;;;;3.47;2.40;;;31.90;40.00;;;;;;5019814;28;20882;-74
2022/08/06 12:48:05;;;;;;;4.90;2.43;;;32.00;40.00;;;;;;5025518;28;20460;-75
2022/08/06 12:50:32;;;;;;;3.03;2.70;;;32.30;39.80;;;;;;5028736;28;20423;-74
2022/08/06 12:53:07;;;;;;;3.30;2.60;;;32.60;39.70;;;;;;5016422;28;20495;-75
2022/08/06 12:55:46;;;;;;;3.97;2.50;;;32.70;39.10;;;;;;5022434;28;20449;-75
2022/08/06 12:58:15;;;;;;;3.50;2.63;;;33.00;38.60;;;;;;5019393;28;20431;-74
2022/08/06 13:00:45;;;;;;;3.90;2.60;;;33.00;37.70;;;;;;5019208;28;20808;-74
2022/08/06 13:03:13;;;;;;;3.30;2.50;;;32.70;37.60;;;;;;5019787;28;20896;-75
2022/08/06 13:05:41;;;;;;;5.03;2.60;;;32.60;37.40;;;;;;5017810;28;20459;-74
2022/08/06 13:08:07;;;;;;;2.70;2.50;;;32.50;37.80;;;;;;5019557;28;20510;-74